sensor_id;sensor_type;location;lat;lon;timestamp;temperature;humidity
15625;DHT22;7912;51.376;6.126;2023-10-09T00:00:34;17.90;99.90
15625;DHT22;7912;51.376;6.126;2023-10-09T00:03:18;17.90;99.90
15625;DHT22;7912;51.376;6.126;2023-10-09T00:05:46;17.90;99.90
15625;DHT22;7912;51.376;6.126;2023-10-09T00:08:15;17.80;99.90
15625;DHT22;7912;51.376;6.126;2023-10-09T00:10:49;17.80;99.90
15625;DHT22;7912;51.376;6.126;2023-10-09T00:13:21;17.80;99.90
15625;DHT22;7912;51.376;6.126;2023-10-09T00:16:03;17.80;99.90
15625;DHT22;7912;51.376;6.126;2023-10-09T00:18:55;17.80;99.90
15625;DHT22;7912;51.376;6.126;2023-10-09T00:21:23;17.80;99.90
15625;DHT22;7912;51.376;6.126;2023-10-09T00:23:54;17.80;99.90
15625;DHT22;7912;51.376;6.126;2023-10-09T00:26:26;17.80;99.90
15625;DHT22;7912;51.376;6.126;2023-10-09T00:28:56;17.80;99.90
15625;DHT22;7912;51.376;6.126;2023-10-09T00:31:24;17.80;99.90
15625;DHT22;7912;51.376;6.126;2023-10-09T00:34:00;17.80;99.90
15625;DHT22;7912;51.376;6.126;2023-10-09T00:36:29;17.80;99.90
15625;DHT22;7912;51.376;6.126;2023-10-09T00:38:56;17.80;99.90
15625;DHT22;7912;51.376;6.126;2023-10-09T00:41:27;17.80;99.90
15625;DHT22;7912;51.376;6.126;2023-10-09T00:43:56;17.80;99.90
15625;DHT22;7912;51.376;6.126;2023-10-09T00:46:34;17.80;99.90
15625;DHT22;7912;51.376;6.126;2023-10-09T00:49:02;17.90;99.90
15625;DHT22;7912;51.376;6.126;2023-10-09T00:51:51;17.90;99.90
15625;DHT22;7912;51.376;6.126;2023-10-09T00:54:27;17.90;99.90
15625;DHT22;7912;51.376;6.126;2023-10-09T00:57:02;17.90;99.90
15625;DHT22;7912;51.376;6.126;2023-10-09T00:59:34;17.90;99.90
15625;DHT22;7912;51.376;6.126;2023-10-09T01:02:05;17.90;99.90
15625;DHT22;7912;51.376;6.126;2023-10-09T01:04:33;17.90;99.90
15625;DHT22;7912;51.376;6.126;2023-10-09T01:07:04;17.90;99.90
15625;DHT22;7912;51.376;6.126;2023-10-09T01:09:37;18.00;99.90
15625;DHT22;7912;51.376;6.126;2023-10-09T01:12:16;18.00;99.90
15625;DHT22;7912;51.376;6.126;2023-10-09T01:14:46;18.00;99.90
15625;DHT22;7912;51.376;6.126;2023-10-09T01:17:22;18.00;99.90
15625;DHT22;7912;51.376;6.126;2023-10-09T01:20:04;18.00;99.90
15625;DHT22;7912;51.376;6.126;2023-10-09T01:22:38;18.10;99.90
15625;DHT22;7912;51.376;6.126;2023-10-09T01:29:22;18.10;99.90
15625;DHT22;7912;51.376;6.126;2023-10-09T01:31:55;18.10;99.90
15625;DHT22;7912;51.376;6.126;2023-10-09T01:34:32;18.20;99.90
15625;DHT22;7912;51.376;6.126;2023-10-09T01:37:18;18.20;99.90
15625;DHT22;7912;51.376;6.126;2023-10-09T01:39:55;18.20;99.90
15625;DHT22;7912;51.376;6.126;2023-10-09T01:42:26;18.20;99.90
15625;DHT22;7912;51.376;6.126;2023-10-09T01:45:12;18.20;99.90
15625;DHT22;7912;51.376;6.126;2023-10-09T01:47:54;18.20;99.90
15625;DHT22;7912;51.376;6.126;2023-10-09T01:50:22;18.30;99.90
15625;DHT22;7912;51.376;6.126;2023-10-09T01:52:54;18.30;99.90
15625;DHT22;7912;51.376;6.126;2023-10-09T01:55:21;18.20;99.90
15625;DHT22;7912;51.376;6.126;2023-10-09T01:58:08;18.30;99.90
15625;DHT22;7912;51.376;6.126;2023-10-09T02:00:51;18.30;99.90
15625;DHT22;7912;51.376;6.126;2023-10-09T02:03:23;18.30;99.90
15625;DHT22;7912;51.376;6.126;2023-10-09T02:05:56;18.30;99.90
15625;DHT22;7912;51.376;6.126;2023-10-09T02:08:27;18.30;99.90
15625;DHT22;7912;51.376;6.126;2023-10-09T02:11:03;18.30;99.90
15625;DHT22;7912;51.376;6.126;2023-10-09T02:13:30;18.30;99.90
15625;DHT22;7912;51.376;6.126;2023-10-09T02:16:01;18.30;99.90
15625;DHT22;7912;51.376;6.126;2023-10-09T02:18:42;18.30;99.90
15625;DHT22;7912;51.376;6.126;2023-10-09T02:21:26;18.30;99.90
15625;DHT22;7912;51.376;6.126;2023-10-09T02:24:08;18.30;99.90
15625;DHT22;7912;51.376;6.126;2023-10-09T02:26:36;18.40;99.90
15625;DHT22;7912;51.376;6.126;2023-10-09T02:29:06;18.40;99.90
15625;DHT22;7912;51.376;6.126;2023-10-09T02:31:41;18.40;99.90
15625;DHT22;7912;51.376;6.126;2023-10-09T02:34:13;18.30;99.90
15625;DHT22;7912;51.376;6.126;2023-10-09T02:36:43;18.40;99.90
15625;DHT22;7912;51.376;6.126;2023-10-09T02:39:16;18.40;99.90
15625;DHT22;7912;51.376;6.126;2023-10-09T02:42:04;18.40;99.90
15625;DHT22;7912;51.376;6.126;2023-10-09T02:44:46;18.40;99.90
15625;DHT22;7912;51.376;6.126;2023-10-09T02:47:18;18.40;99.90
15625;DHT22;7912;51.376;6.126;2023-10-09T02:49:56;18.40;99.90
15625;DHT22;7912;51.376;6.126;2023-10-09T02:52:35;18.40;99.90
15625;DHT22;7912;51.376;6.126;2023-10-09T02:55:09;18.40;99.90
15625;DHT22;7912;51.376;6.126;2023-10-09T02:57:50;18.40;99.90
15625;DHT22;7912;51.376;6.126;2023-10-09T03:00:32;18.40;99.90
15625;DHT22;7912;51.376;6.126;2023-10-09T03:07:22;18.40;99.90
15625;DHT22;7912;51.376;6.126;2023-10-09T03:09:50;18.50;99.90
15625;DHT22;7912;51.376;6.126;2023-10-09T03:12:17;18.50;99.90
15625;DHT22;7912;51.376;6.126;2023-10-09T03:14:48;18.40;99.90
15625;DHT22;7912;51.376;6.126;2023-10-09T03:17:15;18.40;99.90
15625;DHT22;7912;51.376;6.126;2023-10-09T03:19:43;18.50;99.90
15625;DHT22;7912;51.376;6.126;2023-10-09T03:22:11;18.50;99.90
15625;DHT22;7912;51.376;6.126;2023-10-09T03:24:40;18.50;99.90
15625;DHT22;7912;51.376;6.126;2023-10-09T03:27:17;18.50;99.90
15625;DHT22;7912;51.376;6.126;2023-10-09T03:29:48;18.60;99.90
15625;DHT22;7912;51.376;6.126;2023-10-09T03:32:21;18.50;99.90
15625;DHT22;7912;51.376;6.126;2023-10-09T03:34:48;18.60;99.90
15625;DHT22;7912;51.376;6.126;2023-10-09T03:37:18;18.60;99.90
15625;DHT22;7912;51.376;6.126;2023-10-09T03:39:49;18.60;99.90
15625;DHT22;7912;51.376;6.126;2023-10-09T03:42:22;18.60;99.90
15625;DHT22;7912;51.376;6.126;2023-10-09T03:44:51;18.60;99.90
15625;DHT22;7912;51.376;6.126;2023-10-09T03:47:24;18.60;99.90
15625;DHT22;7912;51.376;6.126;2023-10-09T03:49:54;18.60;99.90
15625;DHT22;7912;51.376;6.126;2023-10-09T03:52:23;18.70;99.90
15625;DHT22;7912;51.376;6.126;2023-10-09T03:54:54;18.60;99.90
15625;DHT22;7912;51.376;6.126;2023-10-09T03:57:22;18.70;99.90
15625;DHT22;7912;51.376;6.126;2023-10-09T03:59:50;18.70;99.90
15625;DHT22;7912;51.376;6.126;2023-10-09T04:02:19;18.70;99.90
15625;DHT22;7912;51.376;6.126;2023-10-09T04:04:49;18.70;99.90
15625;DHT22;7912;51.376;6.126;2023-10-09T04:07:18;18.70;99.90
15625;DHT22;7912;51.376;6.126;2023-10-09T04:09:46;18.60;99.90
15625;DHT22;7912;51.376;6.126;2023-10-09T04:12:20;18.70;99.90
15625;DHT22;7912;51.376;6.126;2023-10-09T04:14:52;18.60;99.90
15625;DHT22;7912;51.376;6.126;2023-10-09T04:17:29;18.70;99.90
15625;DHT22;7912;51.376;6.126;2023-10-09T04:19:56;18.60;99.90
15625;DHT22;7912;51.376;6.126;2023-10-09T04:22:43;18.60;99.90
15625;DHT22;7912;51.376;6.126;2023-10-09T04:25:31;18.60;99.90
15625;DHT22;7912;51.376;6.126;2023-10-09T04:28:09;18.60;99.90
15625;DHT22;7912;51.376;6.126;2023-10-09T04:30:47;18.60;99.90
15625;DHT22;7912;51.376;6.126;2023-10-09T04:33:22;18.60;99.90
15625;DHT22;7912;51.376;6.126;2023-10-09T04:36:02;18.70;99.90
15625;DHT22;7912;51.376;6.126;2023-10-09T04:38:52;18.70;99.90
15625;DHT22;7912;51.376;6.126;2023-10-09T04:41:30;18.70;99.90
15625;DHT22;7912;51.376;6.126;2023-10-09T04:44:00;18.70;99.90
15625;DHT22;7912;51.376;6.126;2023-10-09T04:46:47;18.70;99.90
15625;DHT22;7912;51.376;6.126;2023-10-09T04:49:38;18.70;99.90
15625;DHT22;7912;51.376;6.126;2023-10-09T04:52:18;18.70;99.90
15625;DHT22;7912;51.376;6.126;2023-10-09T04:54:52;18.70;99.90
15625;DHT22;7912;51.376;6.126;2023-10-09T04:57:39;18.70;99.90
15625;DHT22;7912;51.376;6.126;2023-10-09T05:00:11;18.70;99.90
15625;DHT22;7912;51.376;6.126;2023-10-09T05:03:11;18.70;99.90
15625;DHT22;7912;51.376;6.126;2023-10-09T05:05:57;18.70;99.90
15625;DHT22;7912;51.376;6.126;2023-10-09T05:08:48;18.70;99.90
15625;DHT22;7912;51.376;6.126;2023-10-09T05:11:16;18.70;99.90
15625;DHT22;7912;51.376;6.126;2023-10-09T05:14:21;18.70;99.90
15625;DHT22;7912;51.376;6.126;2023-10-09T05:16:54;18.70;99.90
15625;DHT22;7912;51.376;6.126;2023-10-09T05:19:22;18.70;99.90
15625;DHT22;7912;51.376;6.126;2023-10-09T05:22:00;18.70;99.90
15625;DHT22;7912;51.376;6.126;2023-10-09T05:24:34;18.70;99.90
15625;DHT22;7912;51.376;6.126;2023-10-09T05:27:13;18.70;99.90
15625;DHT22;7912;51.376;6.126;2023-10-09T05:29:51;18.70;99.90
15625;DHT22;7912;51.376;6.126;2023-10-09T05:32:40;18.70;99.90
15625;DHT22;7912;51.376;6.126;2023-10-09T05:35:15;18.80;99.90
15625;DHT22;7912;51.376;6.126;2023-10-09T05:37:43;18.80;99.90
15625;DHT22;7912;51.376;6.126;2023-10-09T05:40:12;18.80;99.90
15625;DHT22;7912;51.376;6.126;2023-10-09T05:42:44;18.80;99.90
15625;DHT22;7912;51.376;6.126;2023-10-09T05:45:15;18.80;99.90
15625;DHT22;7912;51.376;6.126;2023-10-09T05:47:54;18.80;99.90
15625;DHT22;7912;51.376;6.126;2023-10-09T05:50:31;18.80;99.90
15625;DHT22;7912;51.376;6.126;2023-10-09T05:53:02;18.80;99.90
15625;DHT22;7912;51.376;6.126;2023-10-09T05:55:31;18.80;99.90
15625;DHT22;7912;51.376;6.126;2023-10-09T05:58:05;18.80;99.90
15625;DHT22;7912;51.376;6.126;2023-10-09T06:00:51;18.90;99.90
15625;DHT22;7912;51.376;6.126;2023-10-09T06:03:37;18.90;99.90
15625;DHT22;7912;51.376;6.126;2023-10-09T06:06:21;18.90;99.90
15625;DHT22;7912;51.376;6.126;2023-10-09T06:09:11;18.90;99.90
15625;DHT22;7912;51.376;6.126;2023-10-09T06:11:44;18.90;99.90
15625;DHT22;7912;51.376;6.126;2023-10-09T06:14:24;19.00;99.90
15625;DHT22;7912;51.376;6.126;2023-10-09T06:16:54;18.90;99.90
15625;DHT22;7912;51.376;6.126;2023-10-09T06:19:32;19.00;99.90
15625;DHT22;7912;51.376;6.126;2023-10-09T06:22:41;18.90;99.90
15625;DHT22;7912;51.376;6.126;2023-10-09T06:25:43;18.90;99.90
15625;DHT22;7912;51.376;6.126;2023-10-09T06:28:18;18.90;99.90
15625;DHT22;7912;51.376;6.126;2023-10-09T06:31:00;18.90;99.90
15625;DHT22;7912;51.376;6.126;2023-10-09T06:33:50;18.90;99.90
15625;DHT22;7912;51.376;6.126;2023-10-09T06:36:43;18.90;99.90
15625;DHT22;7912;51.376;6.126;2023-10-09T06:39:20;18.90;99.90
15625;DHT22;7912;51.376;6.126;2023-10-09T06:42:29;18.90;99.90
15625;DHT22;7912;51.376;6.126;2023-10-09T06:45:10;18.90;99.90
15625;DHT22;7912;51.376;6.126;2023-10-09T06:47:49;18.90;99.90
15625;DHT22;7912;51.376;6.126;2023-10-09T06:50:23;18.90;99.90
15625;DHT22;7912;51.376;6.126;2023-10-09T06:52:52;19.00;99.90
15625;DHT22;7912;51.376;6.126;2023-10-09T06:55:39;19.00;99.90
15625;DHT22;7912;51.376;6.126;2023-10-09T06:58:21;19.00;99.90
15625;DHT22;7912;51.376;6.126;2023-10-09T07:00:56;19.10;99.90
15625;DHT22;7912;51.376;6.126;2023-10-09T07:03:26;19.10;99.90
15625;DHT22;7912;51.376;6.126;2023-10-09T07:06:07;19.10;99.90
15625;DHT22;7912;51.376;6.126;2023-10-09T07:08:56;19.20;99.90
15625;DHT22;7912;51.376;6.126;2023-10-09T07:11:43;19.20;99.90
15625;DHT22;7912;51.376;6.126;2023-10-09T07:14:24;19.30;99.90
15625;DHT22;7912;51.376;6.126;2023-10-09T07:17:01;19.30;99.90
15625;DHT22;7912;51.376;6.126;2023-10-09T07:20:02;19.40;99.90
15625;DHT22;7912;51.376;6.126;2023-10-09T07:22:41;19.40;99.90
15625;DHT22;7912;51.376;6.126;2023-10-09T07:25:23;19.50;99.90
15625;DHT22;7912;51.376;6.126;2023-10-09T07:28:09;19.60;99.90
15625;DHT22;7912;51.376;6.126;2023-10-09T07:31:16;19.60;99.90
15625;DHT22;7912;51.376;6.126;2023-10-09T07:33:51;19.60;99.90
15625;DHT22;7912;51.376;6.126;2023-10-09T07:36:24;19.70;99.90
15625;DHT22;7912;51.376;6.126;2023-10-09T07:39:05;19.70;99.90
15625;DHT22;7912;51.376;6.126;2023-10-09T07:41:45;19.80;99.90
15625;DHT22;7912;51.376;6.126;2023-10-09T07:44:34;19.80;99.90
15625;DHT22;7912;51.376;6.126;2023-10-09T07:47:04;19.90;99.90
15625;DHT22;7912;51.376;6.126;2023-10-09T07:49:45;19.90;99.90
15625;DHT22;7912;51.376;6.126;2023-10-09T07:52:21;20.00;99.90
15625;DHT22;7912;51.376;6.126;2023-10-09T07:54:50;20.00;99.90
15625;DHT22;7912;51.376;6.126;2023-10-09T07:57:21;20.10;99.90
15625;DHT22;7912;51.376;6.126;2023-10-09T07:59:56;20.10;99.90
15625;DHT22;7912;51.376;6.126;2023-10-09T08:02:39;20.20;99.90
15625;DHT22;7912;51.376;6.126;2023-10-09T08:05:08;20.20;99.90
15625;DHT22;7912;51.376;6.126;2023-10-09T08:07:49;20.30;99.90
15625;DHT22;7912;51.376;6.126;2023-10-09T08:10:48;20.40;99.90
15625;DHT22;7912;51.376;6.126;2023-10-09T08:13:37;20.50;99.90
15625;DHT22;7912;51.376;6.126;2023-10-09T08:16:30;20.50;99.90
15625;DHT22;7912;51.376;6.126;2023-10-09T08:19:04;20.60;99.90
15625;DHT22;7912;51.376;6.126;2023-10-09T08:21:55;20.60;99.90
15625;DHT22;7912;51.376;6.126;2023-10-09T08:24:54;20.60;99.90
15625;DHT22;7912;51.376;6.126;2023-10-09T08:27:26;20.70;99.90
15625;DHT22;7912;51.376;6.126;2023-10-09T08:30:15;20.70;99.90
15625;DHT22;7912;51.376;6.126;2023-10-09T08:32:48;20.70;99.90
15625;DHT22;7912;51.376;6.126;2023-10-09T08:35:32;20.70;99.90
15625;DHT22;7912;51.376;6.126;2023-10-09T08:38:03;20.70;99.90
15625;DHT22;7912;51.376;6.126;2023-10-09T08:40:41;20.70;99.90
15625;DHT22;7912;51.376;6.126;2023-10-09T08:43:14;20.70;99.90
15625;DHT22;7912;51.376;6.126;2023-10-09T08:45:51;20.80;99.90
15625;DHT22;7912;51.376;6.126;2023-10-09T08:48:28;20.80;99.90
15625;DHT22;7912;51.376;6.126;2023-10-09T08:50:57;20.80;99.90
15625;DHT22;7912;51.376;6.126;2023-10-09T08:53:25;20.90;99.90
15625;DHT22;7912;51.376;6.126;2023-10-09T08:55:55;20.90;99.90
15625;DHT22;7912;51.376;6.126;2023-10-09T08:58:24;20.90;99.90
15625;DHT22;7912;51.376;6.126;2023-10-09T09:00:55;21.00;99.90
15625;DHT22;7912;51.376;6.126;2023-10-09T09:03:22;21.00;99.90
15625;DHT22;7912;51.376;6.126;2023-10-09T09:06:01;21.10;99.90
15625;DHT22;7912;51.376;6.126;2023-10-09T09:08:31;21.10;99.90
15625;DHT22;7912;51.376;6.126;2023-10-09T09:11:08;21.20;99.90
15625;DHT22;7912;51.376;6.126;2023-10-09T09:13:41;21.30;99.90
15625;DHT22;7912;51.376;6.126;2023-10-09T09:16:23;21.40;99.90
15625;DHT22;7912;51.376;6.126;2023-10-09T09:21:33;21.50;99.90
15625;DHT22;7912;51.376;6.126;2023-10-09T09:24:12;21.60;99.90
15625;DHT22;7912;51.376;6.126;2023-10-09T09:26:53;21.60;99.90
15625;DHT22;7912;51.376;6.126;2023-10-09T09:32:06;21.80;99.90
15625;DHT22;7912;51.376;6.126;2023-10-09T09:34:52;21.90;99.90
15625;DHT22;7912;51.376;6.126;2023-10-09T09:37:32;22.00;99.90
15625;DHT22;7912;51.376;6.126;2023-10-09T09:40:17;22.10;99.90
15625;DHT22;7912;51.376;6.126;2023-10-09T09:43:02;22.30;99.90
15625;DHT22;7912;51.376;6.126;2023-10-09T09:45:34;22.40;99.90
15625;DHT22;7912;51.376;6.126;2023-10-09T09:48:06;22.60;99.90
15625;DHT22;7912;51.376;6.126;2023-10-09T09:50:35;22.70;99.90
15625;DHT22;7912;51.376;6.126;2023-10-09T09:53:16;22.70;99.90
15625;DHT22;7912;51.376;6.126;2023-10-09T09:55:52;22.90;99.90
15625;DHT22;7912;51.376;6.126;2023-10-09T09:58:28;22.90;99.90
15625;DHT22;7912;51.376;6.126;2023-10-09T10:01:23;23.00;99.90
15625;DHT22;7912;51.376;6.126;2023-10-09T10:04:07;23.20;99.90
15625;DHT22;7912;51.376;6.126;2023-10-09T10:06:48;23.20;99.90
15625;DHT22;7912;51.376;6.126;2023-10-09T10:09:39;23.30;99.90
15625;DHT22;7912;51.376;6.126;2023-10-09T10:12:50;23.40;99.90
15625;DHT22;7912;51.376;6.126;2023-10-09T10:21:47;23.60;99.90
15625;DHT22;7912;51.376;6.126;2023-10-09T10:30:26;23.70;99.90
15625;DHT22;7912;51.376;6.126;2023-10-09T10:33:02;23.80;99.90
15625;DHT22;7912;51.376;6.126;2023-10-09T10:35:38;23.90;99.90
15625;DHT22;7912;51.376;6.126;2023-10-09T10:38:46;23.90;99.90
15625;DHT22;7912;51.376;6.126;2023-10-09T10:41:37;24.00;99.90
15625;DHT22;7912;51.376;6.126;2023-10-09T10:44:32;24.10;99.90
15625;DHT22;7912;51.376;6.126;2023-10-09T10:47:28;24.30;99.90
15625;DHT22;7912;51.376;6.126;2023-10-09T10:50:02;24.30;99.90
15625;DHT22;7912;51.376;6.126;2023-10-09T10:53:31;24.40;99.90
15625;DHT22;7912;51.376;6.126;2023-10-09T10:56:16;24.40;99.90
15625;DHT22;7912;51.376;6.126;2023-10-09T10:58:52;24.50;99.90
15625;DHT22;7912;51.376;6.126;2023-10-09T11:01:34;24.50;99.90
15625;DHT22;7912;51.376;6.126;2023-10-09T11:04:29;24.60;99.90
15625;DHT22;7912;51.376;6.126;2023-10-09T11:07:01;24.70;99.90
15625;DHT22;7912;51.376;6.126;2023-10-09T11:09:49;24.70;99.90
15625;DHT22;7912;51.376;6.126;2023-10-09T11:15:14;24.90;99.90
15625;DHT22;7912;51.376;6.126;2023-10-09T11:18:01;25.00;99.90
15625;DHT22;7912;51.376;6.126;2023-10-09T11:20:59;25.10;99.90
15625;DHT22;7912;51.376;6.126;2023-10-09T11:23:31;25.20;99.90
15625;DHT22;7912;51.376;6.126;2023-10-09T11:26:21;25.30;99.90
15625;DHT22;7912;51.376;6.126;2023-10-09T11:29:09;25.40;99.90
15625;DHT22;7912;51.376;6.126;2023-10-09T11:32:04;25.50;99.90
15625;DHT22;7912;51.376;6.126;2023-10-09T11:34:33;25.60;99.90
15625;DHT22;7912;51.376;6.126;2023-10-09T11:40:56;25.80;99.90
15625;DHT22;7912;51.376;6.126;2023-10-09T11:43:23;25.90;99.90
15625;DHT22;7912;51.376;6.126;2023-10-09T11:46:11;25.90;99.90
15625;DHT22;7912;51.376;6.126;2023-10-09T11:49:04;26.00;99.90
15625;DHT22;7912;51.376;6.126;2023-10-09T11:52:06;26.10;99.90
15625;DHT22;7912;51.376;6.126;2023-10-09T11:54:40;26.20;99.90
15625;DHT22;7912;51.376;6.126;2023-10-09T11:57:16;26.30;99.90
15625;DHT22;7912;51.376;6.126;2023-10-09T11:59:44;26.40;99.90
15625;DHT22;7912;51.376;6.126;2023-10-09T12:02:13;26.50;99.90
15625;DHT22;7912;51.376;6.126;2023-10-09T12:04:40;26.60;99.90
15625;DHT22;7912;51.376;6.126;2023-10-09T12:07:15;26.70;99.70
15625;DHT22;7912;51.376;6.126;2023-10-09T12:09:45;26.70;99.40
15625;DHT22;7912;51.376;6.126;2023-10-09T12:12:14;26.70;99.00
15625;DHT22;7912;51.376;6.126;2023-10-09T12:14:44;26.70;98.90
15625;DHT22;7912;51.376;6.126;2023-10-09T12:17:12;26.70;98.90
15625;DHT22;7912;51.376;6.126;2023-10-09T12:19:40;26.60;98.80
15625;DHT22;7912;51.376;6.126;2023-10-09T12:22:11;26.60;98.70
15625;DHT22;7912;51.376;6.126;2023-10-09T12:24:43;26.60;98.80
15625;DHT22;7912;51.376;6.126;2023-10-09T12:27:13;26.50;99.20
15625;DHT22;7912;51.376;6.126;2023-10-09T12:29:40;26.40;98.90
15625;DHT22;7912;51.376;6.126;2023-10-09T12:32:16;26.40;99.00
15625;DHT22;7912;51.376;6.126;2023-10-09T12:34:46;26.40;98.90
15625;DHT22;7912;51.376;6.126;2023-10-09T12:37:23;26.30;98.70
15625;DHT22;7912;51.376;6.126;2023-10-09T12:39:51;26.30;98.50
15625;DHT22;7912;51.376;6.126;2023-10-09T12:42:26;26.20;98.80
15625;DHT22;7912;51.376;6.126;2023-10-09T12:44:56;26.20;98.80
15625;DHT22;7912;51.376;6.126;2023-10-09T12:53:59;26.00;99.10
15625;DHT22;7912;51.376;6.126;2023-10-09T12:56:28;25.90;99.30
15625;DHT22;7912;51.376;6.126;2023-10-09T12:59:02;25.90;99.40
15625;DHT22;7912;51.376;6.126;2023-10-09T13:01:32;25.80;99.60
15625;DHT22;7912;51.376;6.126;2023-10-09T13:04:01;25.70;99.90
15625;DHT22;7912;51.376;6.126;2023-10-09T13:06:39;25.70;99.90
15625;DHT22;7912;51.376;6.126;2023-10-09T13:09:11;25.70;99.90
15625;DHT22;7912;51.376;6.126;2023-10-09T13:11:47;25.60;99.90
15625;DHT22;7912;51.376;6.126;2023-10-09T13:14:17;25.60;99.90
15625;DHT22;7912;51.376;6.126;2023-10-09T13:16:49;25.60;99.90
15625;DHT22;7912;51.376;6.126;2023-10-09T13:19:17;25.60;99.90
15625;DHT22;7912;51.376;6.126;2023-10-09T13:21:45;25.60;99.90
15625;DHT22;7912;51.376;6.126;2023-10-09T13:24:13;25.70;99.90
15625;DHT22;7912;51.376;6.126;2023-10-09T13:26:43;25.80;99.90
15625;DHT22;7912;51.376;6.126;2023-10-09T13:29:14;25.90;99.90
15625;DHT22;7912;51.376;6.126;2023-10-09T13:31:50;26.10;99.90
15625;DHT22;7912;51.376;6.126;2023-10-09T13:34:27;26.40;99.90
15625;DHT22;7912;51.376;6.126;2023-10-09T13:36:55;26.60;99.90
15625;DHT22;7912;51.376;6.126;2023-10-09T13:39:27;26.80;99.90
15625;DHT22;7912;51.376;6.126;2023-10-09T13:41:58;27.10;99.90
15625;DHT22;7912;51.376;6.126;2023-10-09T13:44:28;27.30;99.50
15625;DHT22;7912;51.376;6.126;2023-10-09T13:46:58;27.50;99.50
15625;DHT22;7912;51.376;6.126;2023-10-09T13:49:33;27.70;99.00
15625;DHT22;7912;51.376;6.126;2023-10-09T13:52:01;27.90;98.50
15625;DHT22;7912;51.376;6.126;2023-10-09T13:54:30;28.00;98.10
15625;DHT22;7912;51.376;6.126;2023-10-09T13:57:02;28.20;97.60
15625;DHT22;7912;51.376;6.126;2023-10-09T13:59:35;28.30;97.10
15625;DHT22;7912;51.376;6.126;2023-10-09T14:02:04;28.40;97.20
15625;DHT22;7912;51.376;6.126;2023-10-09T14:04:37;28.50;96.90
15625;DHT22;7912;51.376;6.126;2023-10-09T14:07:07;28.50;96.90
15625;DHT22;7912;51.376;6.126;2023-10-09T14:09:36;28.60;96.70
15625;DHT22;7912;51.376;6.126;2023-10-09T14:12:12;28.60;96.30
15625;DHT22;7912;51.376;6.126;2023-10-09T14:14:43;28.70;96.40
15625;DHT22;7912;51.376;6.126;2023-10-09T14:17:15;28.80;96.10
15625;DHT22;7912;51.376;6.126;2023-10-09T14:19:54;28.80;95.70
15625;DHT22;7912;51.376;6.126;2023-10-09T14:22:30;28.90;95.50
15625;DHT22;7912;51.376;6.126;2023-10-09T14:25:01;28.90;94.90
15625;DHT22;7912;51.376;6.126;2023-10-09T14:27:28;28.90;94.90
15625;DHT22;7912;51.376;6.126;2023-10-09T14:30:05;28.80;94.60
15625;DHT22;7912;51.376;6.126;2023-10-09T14:32:40;28.70;94.70
15625;DHT22;7912;51.376;6.126;2023-10-09T14:35:23;28.70;95.10
15625;DHT22;7912;51.376;6.126;2023-10-09T14:38:02;28.60;95.00
15625;DHT22;7912;51.376;6.126;2023-10-09T14:40:35;28.50;94.80
15625;DHT22;7912;51.376;6.126;2023-10-09T14:43:09;28.40;94.70
15625;DHT22;7912;51.376;6.126;2023-10-09T14:45:51;28.30;94.60
15625;DHT22;7912;51.376;6.126;2023-10-09T14:48:21;28.20;94.90
15625;DHT22;7912;51.376;6.126;2023-10-09T14:50:56;28.00;94.90
15625;DHT22;7912;51.376;6.126;2023-10-09T14:53:32;27.90;95.00
15625;DHT22;7912;51.376;6.126;2023-10-09T14:56:03;27.80;95.30
15625;DHT22;7912;51.376;6.126;2023-10-09T14:58:39;27.60;95.40
15625;DHT22;7912;51.376;6.126;2023-10-09T15:05:21;27.30;96.10
15625;DHT22;7912;51.376;6.126;2023-10-09T15:07:52;27.20;96.70
15625;DHT22;7912;51.376;6.126;2023-10-09T15:10:27;27.10;97.00
15625;DHT22;7912;51.376;6.126;2023-10-09T15:13:01;27.10;97.30
15625;DHT22;7912;51.376;6.126;2023-10-09T15:15:31;27.10;97.60
15625;DHT22;7912;51.376;6.126;2023-10-09T15:17:58;27.10;97.80
15625;DHT22;7912;51.376;6.126;2023-10-09T15:20:31;27.20;97.70
15625;DHT22;7912;51.376;6.126;2023-10-09T15:22:58;27.30;97.50
15625;DHT22;7912;51.376;6.126;2023-10-09T15:25:28;27.40;97.40
15625;DHT22;7912;51.376;6.126;2023-10-09T15:27:56;27.40;97.00
15625;DHT22;7912;51.376;6.126;2023-10-09T15:30:35;27.40;96.80
15625;DHT22;7912;51.376;6.126;2023-10-09T15:33:08;27.30;96.70
15625;DHT22;7912;51.376;6.126;2023-10-09T15:35:38;27.20;96.60
15625;DHT22;7912;51.376;6.126;2023-10-09T15:38:11;27.10;96.80
15625;DHT22;7912;51.376;6.126;2023-10-09T15:41:00;27.00;96.90
15625;DHT22;7912;51.376;6.126;2023-10-09T15:43:28;26.80;97.00
15625;DHT22;7912;51.376;6.126;2023-10-09T15:45:58;26.70;97.20
15625;DHT22;7912;51.376;6.126;2023-10-09T15:48:35;26.50;97.40
15625;DHT22;7912;51.376;6.126;2023-10-09T15:51:11;26.40;97.70
15625;DHT22;7912;51.376;6.126;2023-10-09T15:53:49;26.20;98.00
15625;DHT22;7912;51.376;6.126;2023-10-09T15:56:18;26.10;98.20
15625;DHT22;7912;51.376;6.126;2023-10-09T15:58:47;25.90;98.50
15625;DHT22;7912;51.376;6.126;2023-10-09T16:01:17;25.80;98.70
15625;DHT22;7912;51.376;6.126;2023-10-09T16:03:49;25.70;99.00
15625;DHT22;7912;51.376;6.126;2023-10-09T16:06:18;25.60;99.30
15625;DHT22;7912;51.376;6.126;2023-10-09T16:08:48;25.50;99.70
15625;DHT22;7912;51.376;6.126;2023-10-09T16:11:18;25.40;99.90
15625;DHT22;7912;51.376;6.126;2023-10-09T16:13:53;25.30;99.90
15625;DHT22;7912;51.376;6.126;2023-10-09T16:16:28;25.20;99.90
15625;DHT22;7912;51.376;6.126;2023-10-09T16:18:57;25.10;99.90
15625;DHT22;7912;51.376;6.126;2023-10-09T16:21:25;25.00;99.90
15625;DHT22;7912;51.376;6.126;2023-10-09T16:23:53;25.00;99.90
15625;DHT22;7912;51.376;6.126;2023-10-09T16:26:26;24.90;99.90
15625;DHT22;7912;51.376;6.126;2023-10-09T16:28:55;24.90;99.90
15625;DHT22;7912;51.376;6.126;2023-10-09T16:31:24;24.80;99.90
15625;DHT22;7912;51.376;6.126;2023-10-09T16:33:52;24.80;99.90
15625;DHT22;7912;51.376;6.126;2023-10-09T16:36:22;24.70;99.90
15625;DHT22;7912;51.376;6.126;2023-10-09T16:38:52;24.60;99.90
15625;DHT22;7912;51.376;6.126;2023-10-09T16:41:22;24.60;99.90
15625;DHT22;7912;51.376;6.126;2023-10-09T16:43:53;24.50;99.90
15625;DHT22;7912;51.376;6.126;2023-10-09T16:46:23;24.40;99.90
15625;DHT22;7912;51.376;6.126;2023-10-09T16:48:53;24.40;99.90
15625;DHT22;7912;51.376;6.126;2023-10-09T16:51:24;24.30;99.90
15625;DHT22;7912;51.376;6.126;2023-10-09T16:53:53;24.20;99.90
15625;DHT22;7912;51.376;6.126;2023-10-09T16:56:25;24.10;99.90
15625;DHT22;7912;51.376;6.126;2023-10-09T16:58:59;24.10;99.90
15625;DHT22;7912;51.376;6.126;2023-10-09T17:01:32;24.00;99.90
15625;DHT22;7912;51.376;6.126;2023-10-09T17:04:04;23.90;99.90
15625;DHT22;7912;51.376;6.126;2023-10-09T17:06:32;23.80;99.90
15625;DHT22;7912;51.376;6.126;2023-10-09T17:09:01;23.70;99.90
15625;DHT22;7912;51.376;6.126;2023-10-09T17:11:34;23.70;99.90
15625;DHT22;7912;51.376;6.126;2023-10-09T17:14:04;23.60;99.90
15625;DHT22;7912;51.376;6.126;2023-10-09T17:16:43;23.50;99.90
15625;DHT22;7912;51.376;6.126;2023-10-09T17:19:12;23.40;99.90
15625;DHT22;7912;51.376;6.126;2023-10-09T17:21:41;23.30;99.90
15625;DHT22;7912;51.376;6.126;2023-10-09T17:24:08;23.30;99.90